sensor_id;sensor_type;location;lat;lon;timestamp;pressure;altitude;pressure_sealevel;temperature;humidity
58088;BME280;43884;49.152;8.302;2023-07-02T17:09:58;99947.59;;;24.93;39.13
58088;BME280;43884;49.152;8.302;2023-07-02T17:12:25;99930.81;;;25.31;37.85
58088;BME280;43884;49.152;8.302;2023-07-02T17:15:39;99939.47;;;26.84;36.07
58088;BME280;43884;49.152;8.302;2023-07-02T17:18:33;99934.22;;;25.89;36.68
58088;BME280;43884;49.152;8.302;2023-07-02T17:21:14;99922.34;;;25.56;37.58
58088;BME280;43884;49.152;8.302;2023-07-02T17:23:41;99943.81;;;25.69;37.31
58088;BME280;43884;49.152;8.302;2023-07-02T17:26:07;99930.78;;;25.17;38.23
58088;BME280;43884;49.152;8.302;2023-07-02T17:28:34;99936.22;;;26.91;38.53
58088;BME280;43884;49.152;8.302;2023-07-02T17:31:01;99930.72;;;26.12;38.46
58088;BME280;43884;49.152;8.302;2023-07-02T17:33:28;99936.44;;;26.94;36.04
58088;BME280;43884;49.152;8.302;2023-07-02T17:35:55;99937.09;;;26.77;36.28
58088;BME280;43884;49.152;8.302;2023-07-02T17:38:21;99939.16;;;26.49;36.56
58088;BME280;43884;49.152;8.302;2023-07-02T17:40:47;99934.22;;;26.03;37.56
58088;BME280;43884;49.152;8.302;2023-07-02T17:43:14;99941.66;;;27.10;37.31
58088;BME280;43884;49.152;8.302;2023-07-02T17:45:41;99943.69;;;25.60;37.62
58088;BME280;43884;49.152;8.302;2023-07-02T17:48:07;99940.31;;;25.77;39.38
58088;BME280;43884;49.152;8.302;2023-07-02T17:50:33;99947.75;;;25.82;37.94
58088;BME280;43884;49.152;8.302;2023-07-02T17:53:00;99944.03;;;25.06;38.04
58088;BME280;43884;49.152;8.302;2023-07-02T17:55:27;99936.31;;;25.84;37.63
58088;BME280;43884;49.152;8.302;2023-07-02T17:57:54;99925.75;;;25.81;37.48
58088;BME280;43884;49.152;8.302;2023-07-02T18:00:21;99933.00;;;25.34;37.79
58088;BME280;43884;49.152;8.302;2023-07-02T18:02:47;99931.97;;;25.44;38.47
58088;BME280;43884;49.152;8.302;2023-07-02T18:05:14;99935.34;;;25.74;38.15
58088;BME280;43884;49.152;8.302;2023-07-02T18:07:41;99928.34;;;24.96;38.91
58088;BME280;43884;49.152;8.302;2023-07-02T18:10:08;99937.19;;;24.60;39.48
58088;BME280;43884;49.152;8.302;2023-07-02T18:12:34;99941.53;;;24.47;39.72
58088;BME280;43884;49.152;8.302;2023-07-02T18:15:01;99937.34;;;24.69;39.63
58088;BME280;43884;49.152;8.302;2023-07-02T18:17:27;99936.97;;;23.64;41.07
58088;BME280;43884;49.152;8.302;2023-07-02T18:19:54;99953.03;;;23.03;42.48
58088;BME280;43884;49.152;8.302;2023-07-02T18:22:21;99949.13;;;23.04;43.20
58088;BME280;43884;49.152;8.302;2023-07-02T18:24:47;99953.50;;;23.10;43.48
58088;BME280;43884;49.152;8.302;2023-07-02T18:27:14;99953.78;;;22.74;43.79
58088;BME280;43884;49.152;8.302;2023-07-02T18:29:41;99950.00;;;22.49;44.22
58088;BME280;43884;49.152;8.302;2023-07-02T18:32:08;99943.34;;;22.55;43.71
58088;BME280;43884;49.152;8.302;2023-07-02T18:34:37;99951.66;;;22.50;44.35
58088;BME280;43884;49.152;8.302;2023-07-02T18:37:05;99947.81;;;22.40;44.30
58088;BME280;43884;49.152;8.302;2023-07-02T18:39:33;99951.44;;;22.36;44.65
58088;BME280;43884;49.152;8.302;2023-07-02T18:42:01;99956.75;;;22.32;44.63
58088;BME280;43884;49.152;8.302;2023-07-02T18:44:28;99966.47;;;22.14;44.91
58088;BME280;43884;49.152;8.302;2023-07-02T18:47:06;99955.34;;;22.29;44.59
58088;BME280;43884;49.152;8.302;2023-07-02T18:49:49;99961.41;;;22.37;45.22
58088;BME280;43884;49.152;8.302;2023-07-02T18:52:30;99956.25;;;22.14;44.65
58088;BME280;43884;49.152;8.302;2023-07-02T18:55:05;99952.50;;;21.74;45.55
58088;BME280;43884;49.152;8.302;2023-07-02T18:57:37;99959.91;;;21.94;45.04
58088;BME280;43884;49.152;8.302;2023-07-02T19:00:28;99953.00;;;21.92;45.03
58088;BME280;43884;49.152;8.302;2023-07-02T19:03:17;99954.44;;;21.73;44.81
58088;BME280;43884;49.152;8.302;2023-07-02T19:06:11;99954.44;;;21.73;45.52
58088;BME280;43884;49.152;8.302;2023-07-02T19:09:17;99955.25;;;21.79;44.91
58088;BME280;43884;49.152;8.302;2023-07-02T19:11:56;99950.81;;;21.68;45.48
58088;BME280;43884;49.152;8.302;2023-07-02T19:17:44;99964.41;;;21.33;46.15
58088;BME280;43884;49.152;8.302;2023-07-02T19:20:30;99964.16;;;21.29;46.20
58088;BME280;43884;49.152;8.302;2023-07-02T19:23:05;99967.16;;;21.17;46.90
58088;BME280;43884;49.152;8.302;2023-07-02T19:26:00;99966.63;;;21.15;47.29
58088;BME280;43884;49.152;8.302;2023-07-02T19:28:40;99968.19;;;20.75;49.12
58088;BME280;43884;49.152;8.302;2023-07-02T19:31:26;99972.09;;;20.84;47.99
58088;BME280;43884;49.152;8.302;2023-07-02T19:34:14;99978.97;;;20.76;48.28
58088;BME280;43884;49.152;8.302;2023-07-02T19:37:30;99968.19;;;20.64;49.14
58088;BME280;43884;49.152;8.302;2023-07-02T19:40:10;99964.06;;;20.77;48.33
58088;BME280;43884;49.152;8.302;2023-07-02T19:42:50;99984.72;;;20.54;49.53
58088;BME280;43884;49.152;8.302;2023-07-02T19:45:39;99981.41;;;20.57;48.74
58088;BME280;43884;49.152;8.302;2023-07-02T19:48:12;99990.47;;;20.42;49.74
58088;BME280;43884;49.152;8.302;2023-07-02T19:50:43;99993.53;;;20.46;48.71
58088;BME280;43884;49.152;8.302;2023-07-02T19:53:31;99995.16;;;20.36;49.49
58088;BME280;43884;49.152;8.302;2023-07-02T19:56:14;99996.22;;;20.30;49.48
58088;BME280;43884;49.152;8.302;2023-07-02T20:02:41;99995.13;;;20.31;49.01
58088;BME280;43884;49.152;8.302;2023-07-02T20:05:23;99992.03;;;20.17;49.24
58088;BME280;43884;49.152;8.302;2023-07-02T20:07:52;100000.94;;;20.35;48.73
58088;BME280;43884;49.152;8.302;2023-07-02T20:10:30;99996.50;;;20.28;49.56
58088;BME280;43884;49.152;8.302;2023-07-02T20:15:46;100000.28;;;20.07;49.90
58088;BME280;43884;49.152;8.302;2023-07-02T20:18:13;100015.25;;;20.26;49.14
58088;BME280;43884;49.152;8.302;2023-07-02T20:20:44;100015.25;;;20.26;49.24
58088;BME280;43884;49.152;8.302;2023-07-02T20:23:28;100009.72;;;20.21;49.37
58088;BME280;43884;49.152;8.302;2023-07-02T20:26:28;100022.09;;;20.13;49.93
58088;BME280;43884;49.152;8.302;2023-07-02T20:28:57;100015.97;;;20.06;49.82
58088;BME280;43884;49.152;8.302;2023-07-02T20:31:47;100022.94;;;20.14;49.58
58088;BME280;43884;49.152;8.302;2023-07-02T20:34:30;100021.25;;;20.08;49.83
58088;BME280;43884;49.152;8.302;2023-07-02T20:37:14;100033.78;;;19.93;50.24
58088;BME280;43884;49.152;8.302;2023-07-02T20:39:53;100026.63;;;19.92;51.32
58088;BME280;43884;49.152;8.302;2023-07-02T20:42:25;100030.66;;;19.74;50.72
58088;BME280;43884;49.152;8.302;2023-07-02T20:45:00;100035.03;;;19.70;50.87
58088;BME280;43884;49.152;8.302;2023-07-02T20:47:59;100040.41;;;19.54;51.88
58088;BME280;43884;49.152;8.302;2023-07-02T20:50:39;100036.19;;;19.41;51.94
58088;BME280;43884;49.152;8.302;2023-07-02T20:53:17;100037.63;;;19.49;51.88
58088;BME280;43884;49.152;8.302;2023-07-02T20:55:52;100046.16;;;19.47;52.00
58088;BME280;43884;49.152;8.302;2023-07-02T20:58:19;100042.31;;;19.48;52.22
58088;BME280;43884;49.152;8.302;2023-07-02T21:00:45;100050.47;;;19.38;52.32
58088;BME280;43884;49.152;8.302;2023-07-02T21:03:19;100036.00;;;19.53;52.44
58088;BME280;43884;49.152;8.302;2023-07-02T21:05:45;100052.56;;;19.26;52.52
58088;BME280;43884;49.152;8.302;2023-07-02T21:08:12;100051.16;;;19.23;52.67
58088;BME280;43884;49.152;8.302;2023-07-02T21:10:39;100049.44;;;19.44;52.15
58088;BME280;43884;49.152;8.302;2023-07-02T21:13:06;100049.75;;;19.20;53.14
58088;BME280;43884;49.152;8.302;2023-07-02T21:15:32;100062.34;;;19.11;53.35
58088;BME280;43884;49.152;8.302;2023-07-02T21:17:59;100056.63;;;19.18;53.49
58088;BME280;43884;49.152;8.302;2023-07-02T21:20:26;100065.66;;;19.13;53.81
58088;BME280;43884;49.152;8.302;2023-07-02T21:22:52;100060.31;;;19.01;54.03
58088;BME280;43884;49.152;8.302;2023-07-02T21:25:19;100061.41;;;18.78;54.48
58088;BME280;43884;49.152;8.302;2023-07-02T21:27:46;100059.75;;;18.77;54.30
58088;BME280;43884;49.152;8.302;2023-07-02T21:30:13;100071.31;;;18.79;54.87
58088;BME280;43884;49.152;8.302;2023-07-02T21:32:39;100069.88;;;18.71;54.54
58088;BME280;43884;49.152;8.302;2023-07-02T21:35:06;100061.09;;;18.52;56.24
58088;BME280;43884;49.152;8.302;2023-07-02T21:37:33;100063.59;;;18.14;57.60
58088;BME280;43884;49.152;8.302;2023-07-02T21:39:59;100064.19;;;17.82;58.90
58088;BME280;43884;49.152;8.302;2023-07-02T21:42:26;100059.69;;;17.93;58.89
58088;BME280;43884;49.152;8.302;2023-07-02T21:44:52;100059.34;;;17.89;59.52
58088;BME280;43884;49.152;8.302;2023-07-02T21:47:19;100060.59;;;17.81;58.92
58088;BME280;43884;49.152;8.302;2023-07-02T21:49:45;100056.59;;;17.89;58.76
58088;BME280;43884;49.152;8.302;2023-07-02T21:52:12;100056.84;;;17.87;59.49
58088;BME280;43884;49.152;8.302;2023-07-02T21:54:38;100058.47;;;17.83;59.27
58088;BME280;43884;49.152;8.302;2023-07-02T21:57:05;100058.34;;;17.61;60.91
58088;BME280;43884;49.152;8.302;2023-07-02T21:59:32;100059.16;;;17.27;64.80
58088;BME280;43884;49.152;8.302;2023-07-02T22:01:58;100051.97;;;17.09;63.25
58088;BME280;43884;49.152;8.302;2023-07-02T22:04:25;100054.25;;;17.00;63.40
58088;BME280;43884;49.152;8.302;2023-07-02T22:06:51;100056.91;;;16.95;66.49
58088;BME280;43884;49.152;8.302;2023-07-02T22:09:18;100050.03;;;16.80;63.99
58088;BME280;43884;49.152;8.302;2023-07-02T22:11:44;100053.16;;;16.72;65.29
58088;BME280;43884;49.152;8.302;2023-07-02T22:14:11;100048.34;;;16.79;64.41
58088;BME280;43884;49.152;8.302;2023-07-02T22:16:37;100056.75;;;16.73;65.03
58088;BME280;43884;49.152;8.302;2023-07-02T22:19:04;100047.19;;;16.75;64.44
58088;BME280;43884;49.152;8.302;2023-07-02T22:21:31;100047.38;;;16.57;65.79
58088;BME280;43884;49.152;8.302;2023-07-02T22:23:58;100045.59;;;16.50;66.76
58088;BME280;43884;49.152;8.302;2023-07-02T22:26:24;100046.97;;;16.65;66.75
58088;BME280;43884;49.152;8.302;2023-07-02T22:28:51;100046.00;;;16.71;65.55
58088;BME280;43884;49.152;8.302;2023-07-02T22:31:17;100052.56;;;16.70;66.08
58088;BME280;43884;49.152;8.302;2023-07-02T22:33:44;100045.59;;;16.79;65.05
58088;BME280;43884;49.152;8.302;2023-07-02T22:36:10;100052.47;;;16.65;66.20
58088;BME280;43884;49.152;8.302;2023-07-02T22:38:37;100050.41;;;16.72;64.51
58088;BME280;43884;49.152;8.302;2023-07-02T22:41:04;100054.19;;;16.54;65.71
58088;BME280;43884;49.152;8.302;2023-07-02T22:43:30;100038.84;;;16.70;64.71
58088;BME280;43884;49.152;8.302;2023-07-02T22:45:57;100048.84;;;16.76;64.29
58088;BME280;43884;49.152;8.302;2023-07-02T22:48:23;100053.03;;;16.67;64.36
58088;BME280;43884;49.152;8.302;2023-07-02T22:50:50;100048.66;;;16.95;62.96
58088;BME280;43884;49.152;8.302;2023-07-02T22:53:16;100053.38;;;16.83;63.90
58088;BME280;43884;49.152;8.302;2023-07-02T22:55:43;100047.97;;;16.88;63.80
58088;BME280;43884;49.152;8.302;2023-07-02T22:58:09;100051.03;;;16.74;64.01
58088;BME280;43884;49.152;8.302;2023-07-02T23:00:36;100054.41;;;16.93;63.20
58088;BME280;43884;49.152;8.302;2023-07-02T23:03:02;100046.31;;;16.87;63.22
58088;BME280;43884;49.152;8.302;2023-07-02T23:05:29;100038.00;;;16.99;62.37
58088;BME280;43884;49.152;8.302;2023-07-02T23:07:56;100042.19;;;17.01;63.03
58088;BME280;43884;49.152;8.302;2023-07-02T23:10:22;100036.47;;;17.03;62.78
58088;BME280;43884;49.152;8.302;2023-07-02T23:12:50;100043.41;;;17.05;62.74
58088;BME280;43884;49.152;8.302;2023-07-02T23:15:19;100046.50;;;17.26;62.50
58088;BME280;43884;49.152;8.302;2023-07-02T23:17:47;100038.44;;;17.19;62.01
58088;BME280;43884;49.152;8.302;2023-07-02T23:20:15;100045.69;;;17.26;61.96
58088;BME280;43884;49.152;8.302;2023-07-02T23:22:42;100038.34;;;17.14;62.22
58088;BME280;43884;49.152;8.302;2023-07-02T23:25:10;100040.44;;;17.24;62.14
58088;BME280;43884;49.152;8.302;2023-07-02T23:27:40;100030.09;;;17.14;62.92
58088;BME280;43884;49.152;8.302;2023-07-02T23:30:13;100037.78;;;17.29;62.89
58088;BME280;43884;49.152;8.302;2023-07-02T23:32:40;100027.03;;;17.28;62.67
58088;BME280;43884;49.152;8.302;2023-07-02T23:35:08;100025.03;;;17.23;62.92
58088;BME280;43884;49.152;8.302;2023-07-02T23:37:35;100025.94;;;17.12;63.17
58088;BME280;43884;49.152;8.302;2023-07-02T23:40:05;100029.22;;;17.26;62.23
58088;BME280;43884;49.152;8.302;2023-07-02T23:42:32;100024.03;;;17.29;61.96
58088;BME280;43884;49.152;8.302;2023-07-02T23:44:59;100014.06;;;17.23;62.55
58088;BME280;43884;49.152;8.302;2023-07-02T23:47:25;100026.38;;;17.38;62.15
58088;BME280;43884;49.152;8.302;2023-07-02T23:49:52;100030.88;;;17.44;62.10
58088;BME280;43884;49.152;8.302;2023-07-02T23:52:18;100022.53;;;17.39;62.41
58088;BME280;43884;49.152;8.302;2023-07-02T23:54:45;100026.38;;;17.38;62.11
58088;BME280;43884;49.152;8.302;2023-07-02T23:57:11;100018.66;;;17.34;62.25
58088;BME280;43884;49.152;8.302;2023-07-02T23:59:38;100025.63;;;17.42;61.77
